This is the latest recevied weather packets stored in our database for station/object W8AN. If no packets are shown the sender has not sent any weather packets the latest 10 day(s).
| Time | Temp. | Humidity | Pressure | Rain* | Wind** | Luminosity | Snow |
|---|---|---|---|---|---|---|---|
| 1778006241 | 11.11° C | 82% | 4262.7 hPa | 3.05 mm | - | 137 W/m² | - |
| 1778005939 | 11.11° C | 82% | 4263.2 hPa | 3.05 mm | - | 72 W/m² | - |
| 1778005634 | 11.67° C | 82% | 4262.9 hPa | 3.05 mm | - | 77 W/m² | - |
| 1778005332 | 11.67° C | 81% | 4263.2 hPa | 3.05 mm | - | 57 W/m² | - |
| 1778005028 | 11.67° C | 80% | 4263 hPa | 3.05 mm | - | 69 W/m² | - |
| 1778004726 | 11.67° C | 80% | 4262.9 hPa | 1.78 mm | - | 113 W/m² | - |
| 1778004422 | 11.67° C | 80% | 4262.9 hPa | 1.27 mm | - | 65 W/m² | - |
| 1778004119 | 11.67° C | 79% | 4262.7 hPa | 3.05 mm | - | 82 W/m² | - |
| 1778003815 | 12.22° C | 78% | 4262.7 hPa | 1.78 mm | - | 62 W/m² | - |
| 1778003511 | 12.22° C | 77% | 4262.8 hPa | 0 mm | - | 98 W/m² | - |
| 1778003208 | 12.22° C | 76% | 4262.5 hPa | 1.27 mm | - | 115 W/m² | - |
| 1778002904 | 12.78° C | 75% | 4262.5 hPa | 1.27 mm | - | 101 W/m² | - |
| 1778002601 | 12.78° C | 75% | 4262.3 hPa | 0 mm | - | 113 W/m² | - |
| 1778002298 | 12.78° C | 72% | 4262.6 hPa | 0 mm | - | 78 W/m² | - |
| 1778001995 | 13.33° C | 75% | 4262.7 hPa | 1.78 mm | - | 92 W/m² | - |
| 1778001692 | 13.33° C | 74% | 4262.5 hPa | 1.78 mm | - | 85 W/m² | - |
| 1778001387 | 13.89° C | 71% | 4262.5 hPa | 0 mm | - | 86 W/m² | - |
| 1778001084 | 13.89° C | 70% | 4262.5 hPa | 0 mm | - | 81 W/m² | - |
| 1778000781 | 13.89° C | 68% | 4262.6 hPa | 0 mm | - | 83 W/m² | - |
| 1778000477 | 14.44° C | 67% | 4262.9 hPa | 0 mm | - | 101 W/m² | - |
| 1778000172 | 14.44° C | 66% | 4262.7 hPa | 0 mm | - | 108 W/m² | - |
| 1777999868 | 14.44° C | 65% | 4263 hPa | 0 mm | - | 89 W/m² | - |
| 1777999564 | 14.44° C | 68% | 4262.7 hPa | 0 mm | - | 82 W/m² | - |
| 1777999262 | 14.44° C | 69% | 4262.7 hPa | 0 mm | - | 88 W/m² | - |
| 1777998961 | 15° C | 70% | 4262.6 hPa | 0 mm | - | 96 W/m² | - |
* Rain latest hour (hover to see other rain measurements)
** Current wind speed in m/s (hover to see current wind gust speed)